sensor_id;sensor_type;location;lat;lon;timestamp;pressure;altitude;pressure_sealevel;temperature;humidity
15880;BME280;61999;51.514;14.614;2024-01-27T00:01:59;100999.50;;;-3.49;100.00
15880;BME280;61999;51.514;14.614;2024-01-27T00:04:28;101002.88;;;-3.38;100.00
15880;BME280;61999;51.514;14.614;2024-01-27T00:06:56;101001.28;;;-3.65;100.00
15880;BME280;61999;51.514;14.614;2024-01-27T00:09:24;101001.31;;;-3.68;100.00
15880;BME280;61999;51.514;14.614;2024-01-27T00:11:52;100995.31;;;-3.67;100.00
15880;BME280;61999;51.514;14.614;2024-01-27T00:14:21;100991.88;;;-3.74;100.00
15880;BME280;61999;51.514;14.614;2024-01-27T00:16:49;101014.19;;;-3.68;100.00
15880;BME280;61999;51.514;14.614;2024-01-27T00:19:17;101022.06;;;-3.99;100.00
15880;BME280;61999;51.514;14.614;2024-01-27T00:21:45;101023.59;;;-3.55;100.00
15880;BME280;61999;51.514;14.614;2024-01-27T00:24:13;101017.47;;;-3.37;100.00
15880;BME280;61999;51.514;14.614;2024-01-27T00:26:42;101024.44;;;-3.57;100.00
15880;BME280;61999;51.514;14.614;2024-01-27T00:29:11;101032.22;;;-3.65;100.00
15880;BME280;61999;51.514;14.614;2024-01-27T00:31:40;101020.72;;;-3.09;100.00
15880;BME280;61999;51.514;14.614;2024-01-27T00:34:08;101031.34;;;-3.61;100.00
15880;BME280;61999;51.514;14.614;2024-01-27T00:36:36;101040.00;;;-3.73;100.00
15880;BME280;61999;51.514;14.614;2024-01-27T00:39:04;101019.38;;;-3.77;100.00
15880;BME280;61999;51.514;14.614;2024-01-27T00:41:32;101021.16;;;-3.92;100.00
15880;BME280;61999;51.514;14.614;2024-01-27T00:44:00;100997.88;;;-3.64;100.00
15880;BME280;61999;51.514;14.614;2024-01-27T00:46:28;101022.88;;;-3.84;100.00
15880;BME280;61999;51.514;14.614;2024-01-27T00:48:57;101024.44;;;-3.57;100.00
15880;BME280;61999;51.514;14.614;2024-01-27T00:51:25;101024.56;;;-3.88;100.00
15880;BME280;61999;51.514;14.614;2024-01-27T00:53:54;101022.66;;;-3.43;100.00
15880;BME280;61999;51.514;14.614;2024-01-27T00:56:22;101027.84;;;-3.48;100.00
15880;BME280;61999;51.514;14.614;2024-01-27T00:58:50;101034.03;;;-3.84;100.00
15880;BME280;61999;51.514;14.614;2024-01-27T01:01:18;101008.31;;;-3.98;100.00
15880;BME280;61999;51.514;14.614;2024-01-27T01:03:46;101030.63;;;-3.91;100.00
15880;BME280;61999;51.514;14.614;2024-01-27T01:06:15;101032.38;;;-4.26;100.00
15880;BME280;61999;51.514;14.614;2024-01-27T01:08:43;101034.00;;;-3.82;100.00
15880;BME280;61999;51.514;14.614;2024-01-27T01:11:11;101020.31;;;-3.91;100.00
15880;BME280;61999;51.514;14.614;2024-01-27T01:13:39;101042.66;;;-3.96;100.00
15880;BME280;61999;51.514;14.614;2024-01-27T01:16:07;101052.09;;;-3.93;100.00
15880;BME280;61999;51.514;14.614;2024-01-27T01:18:35;101049.47;;;-3.88;100.00
15880;BME280;61999;51.514;14.614;2024-01-27T01:21:04;101054.53;;;-3.58;100.00
15880;BME280;61999;51.514;14.614;2024-01-27T01:23:33;101052.88;;;-3.77;100.00
15880;BME280;61999;51.514;14.614;2024-01-27T01:26:01;101057.81;;;-3.30;100.00
15880;BME280;61999;51.514;14.614;2024-01-27T01:28:29;101066.69;;;-4.03;100.00
15880;BME280;61999;51.514;14.614;2024-01-27T01:30:59;101060.66;;;-3.86;100.00
15880;BME280;61999;51.514;14.614;2024-01-27T01:33:27;101052.97;;;-4.17;100.00
15880;BME280;61999;51.514;14.614;2024-01-27T01:35:55;101056.41;;;-4.27;100.00
15880;BME280;61999;51.514;14.614;2024-01-27T01:38:23;101050.38;;;-4.17;100.00
15880;BME280;61999;51.514;14.614;2024-01-27T01:40:53;101064.09;;;-3.91;100.00
15880;BME280;61999;51.514;14.614;2024-01-27T01:43:21;101076.16;;;-4.06;100.00
15880;BME280;61999;51.514;14.614;2024-01-27T01:45:49;101063.88;;;-3.38;100.00
15880;BME280;61999;51.514;14.614;2024-01-27T01:48:20;101059.78;;;-3.92;100.00
15880;BME280;61999;51.514;14.614;2024-01-27T01:50:49;101076.91;;;-3.77;100.00
15880;BME280;61999;51.514;14.614;2024-01-27T01:53:18;101070.13;;;-4.22;100.00
15880;BME280;61999;51.514;14.614;2024-01-27T01:55:46;101076.16;;;-4.32;100.00
15880;BME280;61999;51.514;14.614;2024-01-27T01:58:18;101086.44;;;-3.96;100.00
15880;BME280;61999;51.514;14.614;2024-01-27T02:00:46;101075.28;;;-4.38;100.00
15880;BME280;61999;51.514;14.614;2024-01-27T02:03:14;101090.72;;;-4.10;100.00
15880;BME280;61999;51.514;14.614;2024-01-27T02:05:42;101094.16;;;-3.93;100.00
15880;BME280;61999;51.514;14.614;2024-01-27T02:08:10;101076.16;;;-4.25;100.00
15880;BME280;61999;51.514;14.614;2024-01-27T02:10:38;101077.00;;;-4.24;100.00
15880;BME280;61999;51.514;14.614;2024-01-27T02:13:18;101094.13;;;-4.08;100.00
15880;BME280;61999;51.514;14.614;2024-01-27T02:15:47;101092.44;;;-4.18;100.00
15880;BME280;61999;51.514;14.614;2024-01-27T02:18:16;101098.47;;;-4.44;100.00
15880;BME280;61999;51.514;14.614;2024-01-27T02:20:44;101082.09;;;-3.81;100.00
15880;BME280;61999;51.514;14.614;2024-01-27T02:23:12;101084.72;;;-4.01;100.00
15880;BME280;61999;51.514;14.614;2024-01-27T02:25:42;101091.59;;;-3.99;100.00
15880;BME280;61999;51.514;14.614;2024-01-27T02:28:10;101082.03;;;-3.71;100.00
15880;BME280;61999;51.514;14.614;2024-01-27T02:30:39;101087.25;;;-3.84;100.00
15880;BME280;61999;51.514;14.614;2024-01-27T02:33:07;101089.00;;;-4.14;100.00
15880;BME280;61999;51.514;14.614;2024-01-27T02:35:35;101063.22;;;-3.86;100.00
15880;BME280;61999;51.514;14.614;2024-01-27T02:38:04;101076.16;;;-4.37;100.00
15880;BME280;61999;51.514;14.614;2024-01-27T02:40:32;101101.03;;;-4.16;100.00
15880;BME280;61999;51.514;14.614;2024-01-27T02:43:01;101104.44;;;-4.51;100.00
15880;BME280;61999;51.514;14.614;2024-01-27T02:45:29;101096.72;;;-4.28;100.00
15880;BME280;61999;51.514;14.614;2024-01-27T02:47:57;101110.50;;;-4.33;100.00
15880;BME280;61999;51.514;14.614;2024-01-27T02:50:25;101116.47;;;-4.62;100.00
15880;BME280;61999;51.514;14.614;2024-01-27T02:52:53;101097.59;;;-4.64;100.00
15880;BME280;61999;51.514;14.614;2024-01-27T02:55:21;101116.50;;;-4.39;100.00
15880;BME280;61999;51.514;14.614;2024-01-27T02:57:49;101108.75;;;-4.67;100.00
15880;BME280;61999;51.514;14.614;2024-01-27T03:00:18;101112.22;;;-4.05;100.00
15880;BME280;61999;51.514;14.614;2024-01-27T03:02:46;101117.34;;;-4.68;100.00
15880;BME280;61999;51.514;14.614;2024-01-27T03:05:14;101118.19;;;-4.27;100.00
15880;BME280;61999;51.514;14.614;2024-01-27T03:07:42;101133.63;;;-3.94;100.00
15880;BME280;61999;51.514;14.614;2024-01-27T03:10:10;101130.22;;;-4.48;100.00
15880;BME280;61999;51.514;14.614;2024-01-27T03:12:38;101131.06;;;-4.55;100.00
15880;BME280;61999;51.514;14.614;2024-01-27T03:15:07;101137.06;;;-4.16;100.00
15880;BME280;61999;51.514;14.614;2024-01-27T03:17:36;101128.47;;;-4.67;100.00
15880;BME280;61999;51.514;14.614;2024-01-27T03:20:06;101140.50;;;-4.48;100.00
15880;BME280;61999;51.514;14.614;2024-01-27T03:22:36;101135.34;;;-4.29;100.00
15880;BME280;61999;51.514;14.614;2024-01-27T03:25:05;101124.22;;;-4.39;100.00
15880;BME280;61999;51.514;14.614;2024-01-27T03:27:33;101143.06;;;-3.82;100.00
15880;BME280;61999;51.514;14.614;2024-01-27T03:30:02;101138.78;;;-4.15;100.00
15880;BME280;61999;51.514;14.614;2024-01-27T03:32:31;101140.47;;;-4.69;100.00
15880;BME280;61999;51.514;14.614;2024-01-27T03:35:02;101136.22;;;-4.00;100.00
15880;BME280;61999;51.514;14.614;2024-01-27T03:37:30;101138.81;;;-4.33;100.00
15880;BME280;61999;51.514;14.614;2024-01-27T03:39:58;101145.66;;;-4.42;100.00
15880;BME280;61999;51.514;14.614;2024-01-27T03:42:26;101157.66;;;-4.25;100.00
15880;BME280;61999;51.514;14.614;2024-01-27T03:44:54;101156.78;;;-4.46;100.00
15880;BME280;61999;51.514;14.614;2024-01-27T03:47:22;101154.22;;;-4.52;100.00
15880;BME280;61999;51.514;14.614;2024-01-27T03:49:50;101166.19;;;-4.60;100.00
15880;BME280;61999;51.514;14.614;2024-01-27T03:52:20;101169.59;;;-4.80;100.00
15880;BME280;61999;51.514;14.614;2024-01-27T03:54:48;101155.91;;;-4.72;100.00
15880;BME280;61999;51.514;14.614;2024-01-27T03:57:16;101166.06;;;-5.12;100.00
15880;BME280;61999;51.514;14.614;2024-01-27T03:59:44;101161.06;;;-4.63;100.00
15880;BME280;61999;51.514;14.614;2024-01-27T04:02:12;101167.88;;;-4.74;100.00
15880;BME280;61999;51.514;14.614;2024-01-27T04:04:40;101177.38;;;-4.40;100.00
15880;BME280;61999;51.514;14.614;2024-01-27T04:07:08;101163.66;;;-4.46;100.00
15880;BME280;61999;51.514;14.614;2024-01-27T04:09:37;101173.13;;;-4.36;100.00
15880;BME280;61999;51.514;14.614;2024-01-27T04:12:06;101167.91;;;-4.68;100.00
15880;BME280;61999;51.514;14.614;2024-01-27T04:14:34;101178.25;;;-4.53;100.00
15880;BME280;61999;51.514;14.614;2024-01-27T04:17:02;101173.09;;;-4.53;100.00
15880;BME280;61999;51.514;14.614;2024-01-27T04:19:30;101179.09;;;-4.34;100.00
15880;BME280;61999;51.514;14.614;2024-01-27T04:21:58;101174.81;;;-3.94;100.00
15880;BME280;61999;51.514;14.614;2024-01-27T04:24:26;101139.66;;;-4.07;100.00
15880;BME280;61999;51.514;14.614;2024-01-27T04:26:55;101178.19;;;-4.68;100.00
15880;BME280;61999;51.514;14.614;2024-01-27T04:29:23;101185.13;;;-4.21;100.00
15880;BME280;61999;51.514;14.614;2024-01-27T04:31:51;101163.66;;;-4.39;100.00
15880;BME280;61999;51.514;14.614;2024-01-27T04:34:19;101190.28;;;-4.06;100.00
15880;BME280;61999;51.514;14.614;2024-01-27T04:36:47;101187.66;;;-4.40;100.00
15880;BME280;61999;51.514;14.614;2024-01-27T04:39:16;101193.69;;;-4.33;100.00
15880;BME280;61999;51.514;14.614;2024-01-27T04:41:44;101200.56;;;-4.18;100.00
15880;BME280;61999;51.514;14.614;2024-01-27T04:44:13;101197.16;;;-3.93;100.00
15880;BME280;61999;51.514;14.614;2024-01-27T04:46:41;101197.13;;;-4.14;100.00
15880;BME280;61999;51.514;14.614;2024-01-27T04:49:09;101191.97;;;-4.42;100.00
15880;BME280;61999;51.514;14.614;2024-01-27T04:51:38;101185.13;;;-4.18;100.00
15880;BME280;61999;51.514;14.614;2024-01-27T04:54:06;101212.56;;;-4.14;100.00
15880;BME280;61999;51.514;14.614;2024-01-27T04:56:34;101191.97;;;-4.14;100.00
15880;BME280;61999;51.514;14.614;2024-01-27T04:59:02;101197.13;;;-4.39;100.00
15880;BME280;61999;51.514;14.614;2024-01-27T05:01:32;101194.56;;;-4.22;100.00
15880;BME280;61999;51.514;14.614;2024-01-27T05:03:59;101190.28;;;-4.21;100.00
15880;BME280;61999;51.514;14.614;2024-01-27T05:06:28;101207.41;;;-4.46;100.00
15880;BME280;61999;51.514;14.614;2024-01-27T05:08:55;101217.66;;;-4.63;100.00
15880;BME280;61999;51.514;14.614;2024-01-27T05:11:31;101222.00;;;-4.31;100.00
15880;BME280;61999;51.514;14.614;2024-01-27T05:13:59;101229.69;;;-4.53;100.00
15880;BME280;61999;51.514;14.614;2024-01-27T05:16:28;101231.38;;;-4.61;100.00
15880;BME280;61999;51.514;14.614;2024-01-27T05:18:57;101236.56;;;-4.52;100.00
15880;BME280;61999;51.514;14.614;2024-01-27T05:21:25;101227.06;;;-4.68;100.00
15880;BME280;61999;51.514;14.614;2024-01-27T05:23:53;101240.78;;;-4.71;100.00
15880;BME280;61999;51.514;14.614;2024-01-27T05:26:21;101224.56;;;-4.22;100.00
15880;BME280;61999;51.514;14.614;2024-01-27T05:28:49;101234.06;;;-3.77;100.00
15880;BME280;61999;51.514;14.614;2024-01-27T05:31:17;101236.66;;;-4.03;100.00
15880;BME280;61999;51.514;14.614;2024-01-27T05:33:45;101233.22;;;-3.74;100.00
15880;BME280;61999;51.514;14.614;2024-01-27T05:36:15;101231.53;;;-3.87;100.00
15880;BME280;61999;51.514;14.614;2024-01-27T05:38:43;101217.75;;;-3.71;100.00
15880;BME280;61999;51.514;14.614;2024-01-27T05:41:11;101240.00;;;-4.38;100.00
15880;BME280;61999;51.514;14.614;2024-01-27T05:43:39;101232.31;;;-4.08;100.00
15880;BME280;61999;51.514;14.614;2024-01-27T05:46:09;101242.56;;;-4.59;100.00
15880;BME280;61999;51.514;14.614;2024-01-27T05:48:37;101236.69;;;-3.91;100.00
15880;BME280;61999;51.514;14.614;2024-01-27T05:51:05;101238.31;;;-4.26;100.00
15880;BME280;61999;51.514;14.614;2024-01-27T05:53:35;101240.84;;;-4.55;100.00
15880;BME280;61999;51.514;14.614;2024-01-27T05:56:04;101226.25;;;-4.61;100.00
15880;BME280;61999;51.514;14.614;2024-01-27T05:58:32;101250.19;;;-4.77;100.00
15880;BME280;61999;51.514;14.614;2024-01-27T06:01:00;101267.59;;;-3.87;100.00
15880;BME280;61999;51.514;14.614;2024-01-27T06:03:28;101272.66;;;-4.18;100.00
15880;BME280;61999;51.514;14.614;2024-01-27T06:05:58;101272.72;;;-3.91;100.00
15880;BME280;61999;51.514;14.614;2024-01-27T06:08:26;101292.38;;;-4.23;100.00
15880;BME280;61999;51.514;14.614;2024-01-27T06:10:55;101294.09;;;-4.24;100.00
15880;BME280;61999;51.514;14.614;2024-01-27T06:13:23;101303.47;;;-4.43;100.00
15880;BME280;61999;51.514;14.614;2024-01-27T06:15:51;101291.63;;;-3.76;100.00
15880;BME280;61999;51.514;14.614;2024-01-27T06:18:19;101319.81;;;-4.36;100.00
15880;BME280;61999;51.514;14.614;2024-01-27T06:20:47;101312.22;;;-3.82;100.00
15880;BME280;61999;51.514;14.614;2024-01-27T06:23:15;101319.97;;;-3.47;100.00
15880;BME280;61999;51.514;14.614;2024-01-27T06:25:43;101314.72;;;-4.18;100.00
15880;BME280;61999;51.514;14.614;2024-01-27T06:28:12;101307.00;;;-4.16;100.00
15880;BME280;61999;51.514;14.614;2024-01-27T06:30:40;101317.38;;;-3.64;100.00
15880;BME280;61999;51.514;14.614;2024-01-27T06:33:09;101316.50;;;-3.71;100.00
15880;BME280;61999;51.514;14.614;2024-01-27T06:35:37;101305.22;;;-4.32;100.00
15880;BME280;61999;51.514;14.614;2024-01-27T06:38:04;101325.88;;;-4.11;100.00
15880;BME280;61999;51.514;14.614;2024-01-27T06:40:32;101310.38;;;-4.32;100.00
15880;BME280;61999;51.514;14.614;2024-01-27T06:43:00;101336.25;;;-3.80;100.00
15880;BME280;61999;51.514;14.614;2024-01-27T06:45:31;101343.16;;;-3.46;100.00
15880;BME280;61999;51.514;14.614;2024-01-27T06:47:59;101362.03;;;-3.89;100.00
15880;BME280;61999;51.514;14.614;2024-01-27T06:50:27;101342.28;;;-3.87;100.00
15880;BME280;61999;51.514;14.614;2024-01-27T06:52:55;101336.09;;;-4.45;100.00
15880;BME280;61999;51.514;14.614;2024-01-27T06:55:23;101335.41;;;-3.84;100.00
15880;BME280;61999;51.514;14.614;2024-01-27T06:57:51;101348.91;;;-4.55;100.00
15880;BME280;61999;51.514;14.614;2024-01-27T07:00:20;101344.00;;;-3.77;100.00
15880;BME280;61999;51.514;14.614;2024-01-27T07:02:50;101364.63;;;-3.47;100.00
15880;BME280;61999;51.514;14.614;2024-01-27T07:05:18;101348.25;;;-3.98;100.00
15880;BME280;61999;51.514;14.614;2024-01-27T07:07:46;101332.53;;;-4.68;100.00
15880;BME280;61999;51.514;14.614;2024-01-27T07:10:14;101361.91;;;-4.20;100.00
15880;BME280;61999;51.514;14.614;2024-01-27T07:12:42;101358.38;;;-4.42;100.00
15880;BME280;61999;51.514;14.614;2024-01-27T07:15:10;101372.31;;;-3.89;100.00
15880;BME280;61999;51.514;14.614;2024-01-27T07:17:38;101369.66;;;-4.08;100.00
15880;BME280;61999;51.514;14.614;2024-01-27T07:20:10;101364.63;;;-3.76;100.00
15880;BME280;61999;51.514;14.614;2024-01-27T07:22:38;101379.09;;;-4.15;100.00
15880;BME280;61999;51.514;14.614;2024-01-27T07:25:06;101404.94;;;-3.82;100.00
15880;BME280;61999;51.514;14.614;2024-01-27T07:27:37;101407.13;;;-4.71;100.00
15880;BME280;61999;51.514;14.614;2024-01-27T07:30:06;101390.91;;;-4.58;100.00
15880;BME280;61999;51.514;14.614;2024-01-27T07:32:36;101382.41;;;-4.45;100.00
15880;BME280;61999;51.514;14.614;2024-01-27T07:35:05;101375.66;;;-4.09;100.00
15880;BME280;61999;51.514;14.614;2024-01-27T07:37:34;101412.63;;;-3.99;100.00
15880;BME280;61999;51.514;14.614;2024-01-27T07:40:04;101407.50;;;-3.88;100.00
15880;BME280;61999;51.514;14.614;2024-01-27T07:42:33;101411.66;;;-4.20;100.00
15880;BME280;61999;51.514;14.614;2024-01-27T07:45:01;101405.69;;;-4.16;100.00
15880;BME280;61999;51.514;14.614;2024-01-27T07:47:29;101420.41;;;-3.88;100.00
15880;BME280;61999;51.514;14.614;2024-01-27T07:49:57;101434.16;;;-3.80;100.00
15880;BME280;61999;51.514;14.614;2024-01-27T07:52:25;101430.59;;;-4.16;100.00
15880;BME280;61999;51.514;14.614;2024-01-27T07:54:54;101432.44;;;-3.84;100.00
15880;BME280;61999;51.514;14.614;2024-01-27T07:57:22;101433.16;;;-4.08;100.00
15880;BME280;61999;51.514;14.614;2024-01-27T07:59:50;101436.56;;;-4.22;100.00
15880;BME280;61999;51.514;14.614;2024-01-27T08:02:18;101423.72;;;-4.14;100.00
15880;BME280;61999;51.514;14.614;2024-01-27T08:04:46;101438.41;;;-3.95;100.00
15880;BME280;61999;51.514;14.614;2024-01-27T08:07:14;101437.63;;;-3.66;100.00
15880;BME280;61999;51.514;14.614;2024-01-27T08:09:43;101453.06;;;-3.84;100.00
15880;BME280;61999;51.514;14.614;2024-01-27T08:12:13;101447.13;;;-3.47;100.00
15880;BME280;61999;51.514;14.614;2024-01-27T08:14:41;101435.94;;;-3.64;100.00
15880;BME280;61999;51.514;14.614;2024-01-27T08:17:09;101429.09;;;-3.37;100.00
15880;BME280;61999;51.514;14.614;2024-01-27T08:19:37;101449.72;;;-2.91;100.00
15880;BME280;61999;51.514;14.614;2024-01-27T08:22:05;101429.09;;;-3.40;100.00
15880;BME280;61999;51.514;14.614;2024-01-27T08:24:36;101435.09;;;-3.46;100.00
15880;BME280;61999;51.514;14.614;2024-01-27T08:27:04;101442.81;;;-3.57;100.00
15880;BME280;61999;51.514;14.614;2024-01-27T08:29:34;101447.75;;;-4.15;100.00
15880;BME280;61999;51.514;14.614;2024-01-27T08:32:02;101442.75;;;-3.78;100.00
15880;BME280;61999;51.514;14.614;2024-01-27T08:34:30;101447.97;;;-3.54;100.00
15880;BME280;61999;51.514;14.614;2024-01-27T08:37:01;101461.63;;;-3.82;100.00
15880;BME280;61999;51.514;14.614;2024-01-27T08:39:29;101464.22;;;-3.81;100.00
15880;BME280;61999;51.514;14.614;2024-01-27T08:41:57;101447.13;;;-3.45;100.00
15880;BME280;61999;51.514;14.614;2024-01-27T08:44:25;101457.31;;;-3.99;100.00
15880;BME280;61999;51.514;14.614;2024-01-27T08:46:55;101463.41;;;-3.66;100.00
15880;BME280;61999;51.514;14.614;2024-01-27T08:49:24;101470.31;;;-3.54;100.00
15880;BME280;61999;51.514;14.614;2024-01-27T08:51:52;101476.38;;;-3.09;100.00
15880;BME280;61999;51.514;14.614;2024-01-27T08:54:22;101477.25;;;-3.12;100.00
15880;BME280;61999;51.514;14.614;2024-01-27T08:56:50;101471.22;;;-3.17;100.00
15880;BME280;61999;51.514;14.614;2024-01-27T08:59:18;101476.41;;;-2.89;100.00
15880;BME280;61999;51.514;14.614;2024-01-27T09:01:47;101466.06;;;-2.82;100.00
15880;BME280;61999;51.514;14.614;2024-01-27T09:04:16;101477.25;;;-3.24;100.00
15880;BME280;61999;51.514;14.614;2024-01-27T09:06:44;101482.28;;;-3.73;100.00
15880;BME280;61999;51.514;14.614;2024-01-27T09:09:12;101479.66;;;-3.85;100.00
15880;BME280;61999;51.514;14.614;2024-01-27T09:11:40;101483.16;;;-3.76;100.00
15880;BME280;61999;51.514;14.614;2024-01-27T09:14:08;101487.50;;;-3.49;100.00
15880;BME280;61999;51.514;14.614;2024-01-27T09:16:36;101473.72;;;-3.66;100.00
15880;BME280;61999;51.514;14.614;2024-01-27T09:19:05;101475.50;;;-3.43;100.00
15880;BME280;61999;51.514;14.614;2024-01-27T09:21:35;101497.66;;;-3.98;100.00
15880;BME280;61999;51.514;14.614;2024-01-27T09:24:04;101491.78;;;-3.52;100.00
15880;BME280;61999;51.514;14.614;2024-01-27T09:26:32;101475.47;;;-3.53;100.00
15880;BME280;61999;51.514;14.614;2024-01-27T09:28:59;101492.59;;;-3.73;100.00
15880;BME280;61999;51.514;14.614;2024-01-27T09:31:27;101465.94;;;-3.80;100.00
15880;BME280;61999;51.514;14.614;2024-01-27T09:33:55;101482.41;;;-3.21;100.00
15880;BME280;61999;51.514;14.614;2024-01-27T09:36:23;101487.56;;;-2.78;100.00
15880;BME280;61999;51.514;14.614;2024-01-27T09:38:53;101483.16;;;-3.65;100.00
15880;BME280;61999;51.514;14.614;2024-01-27T09:41:21;101482.41;;;-3.27;100.00
15880;BME280;61999;51.514;14.614;2024-01-27T09:43:49;101498.72;;;-3.11;100.00
15880;BME280;61999;51.514;14.614;2024-01-27T09:46:18;101478.09;;;-2.85;100.00
15880;BME280;61999;51.514;14.614;2024-01-27T09:48:47;101492.72;;;-2.66;100.00
15880;BME280;61999;51.514;14.614;2024-01-27T09:51:15;101518.50;;;-3.27;100.00
15880;BME280;61999;51.514;14.614;2024-01-27T09:53:44;101512.47;;;-3.29;100.00
15880;BME280;61999;51.514;14.614;2024-01-27T09:56:13;101527.13;;;-2.85;100.00
15880;BME280;61999;51.514;14.614;2024-01-27T09:58:45;101507.31;;;-3.35;100.00
15880;BME280;61999;51.514;14.614;2024-01-27T10:01:16;101487.56;;;-3.03;100.00
15880;BME280;61999;51.514;14.614;2024-01-27T10:03:46;101497.84;;;-2.41;100.00
15880;BME280;61999;51.514;14.614;2024-01-27T10:06:14;101501.31;;;-2.61;100.00
15880;BME280;61999;51.514;14.614;2024-01-27T10:08:52;101519.41;;;-2.73;100.00
15880;BME280;61999;51.514;14.614;2024-01-27T10:11:23;101505.59;;;-2.40;100.00
15880;BME280;61999;51.514;14.614;2024-01-27T10:13:55;101504.75;;;-2.71;100.00
15880;BME280;61999;51.514;14.614;2024-01-27T10:16:24;101518.50;;;-2.38;100.00
15880;BME280;61999;51.514;14.614;2024-01-27T10:19:00;101523.56;;;-1.92;100.00
15880;BME280;61999;51.514;14.614;2024-01-27T10:21:28;101523.44;;;-1.55;100.00
15880;BME280;61999;51.514;14.614;2024-01-27T10:23:57;101537.34;;;-1.96;100.00
15880;BME280;61999;51.514;14.614;2024-01-27T10:26:26;101516.78;;;-2.62;100.00
15880;BME280;61999;51.514;14.614;2024-01-27T10:28:58;101521.94;;;-2.39;100.00
15880;BME280;61999;51.514;14.614;2024-01-27T10:31:27;101516.78;;;-3.05;100.00
15880;BME280;61999;51.514;14.614;2024-01-27T10:33:56;101527.00;;;-1.99;100.00
15880;BME280;61999;51.514;14.614;2024-01-27T10:36:25;101522.81;;;-2.77;100.00
15880;BME280;61999;51.514;14.614;2024-01-27T10:38:53;101508.19;;;-2.66;100.00
15880;BME280;61999;51.514;14.614;2024-01-27T10:41:23;101531.38;;;-2.34;100.00
15880;BME280;61999;51.514;14.614;2024-01-27T10:43:56;101527.13;;;-2.71;100.00
15880;BME280;61999;51.514;14.614;2024-01-27T10:46:27;101517.66;;;-2.71;100.00
15880;BME280;61999;51.514;14.614;2024-01-27T10:48:59;101522.84;;;-2.56;100.00
15880;BME280;61999;51.514;14.614;2024-01-27T10:51:31;101521.97;;;-2.56;100.00
15880;BME280;61999;51.514;14.614;2024-01-27T10:54:02;101527.16;;;-2.73;100.00
15880;BME280;61999;51.514;14.614;2024-01-27T10:56:34;101528.84;;;-2.41;100.00
15880;BME280;61999;51.514;14.614;2024-01-27T10:59:05;101521.97;;;-2.50;100.00
15880;BME280;61999;51.514;14.614;2024-01-27T11:01:37;101535.63;;;-1.97;100.00
15880;BME280;61999;51.514;14.614;2024-01-27T11:04:10;101525.22;;;-1.77;100.00
15880;BME280;61999;51.514;14.614;2024-01-27T11:06:42;101543.94;;;-1.22;100.00
15880;BME280;61999;51.514;14.614;2024-01-27T11:09:12;101532.28;;;-2.58;100.00
15880;BME280;61999;51.514;14.614;2024-01-27T11:11:41;101537.47;;;-2.53;100.00
15880;BME280;61999;51.514;14.614;2024-01-27T11:14:12;101540.84;;;-2.25;100.00
15880;BME280;61999;51.514;14.614;2024-01-27T11:16:40;101557.09;;;-1.77;100.00
15880;BME280;61999;51.514;14.614;2024-01-27T11:19:16;101552.72;;;-1.53;100.00
15880;BME280;61999;51.514;14.614;2024-01-27T11:21:45;101556.34;;;-2.19;100.00
15880;BME280;61999;51.514;14.614;2024-01-27T11:24:15;101554.66;;;-2.32;100.00
15880;BME280;61999;51.514;14.614;2024-01-27T11:26:43;101556.34;;;-2.19;100.00
15880;BME280;61999;51.514;14.614;2024-01-27T11:29:13;101563.28;;;-2.33;100.00
15880;BME280;61999;51.514;14.614;2024-01-27T11:31:46;101569.19;;;-1.88;100.00
15880;BME280;61999;51.514;14.614;2024-01-27T11:34:18;101577.03;;;-2.56;100.00
15880;BME280;61999;51.514;14.614;2024-01-27T11:36:46;101548.63;;;-2.49;100.00
15880;BME280;61999;51.514;14.614;2024-01-27T11:39:25;101553.75;;;-2.17;100.00
15880;BME280;61999;51.514;14.614;2024-01-27T11:42:04;101567.38;;;-1.63;100.00
15880;BME280;61999;51.514;14.614;2024-01-27T11:44:35;101575.31;;;-2.44;100.00
15880;BME280;61999;51.514;14.614;2024-01-27T11:47:04;101571.00;;;-2.33;100.00
15880;BME280;61999;51.514;14.614;2024-01-27T11:49:33;101562.41;;;-2.43;100.00
15880;BME280;61999;51.514;14.614;2024-01-27T11:52:02;101573.56;;;-2.36;100.00
15880;BME280;61999;51.514;14.614;2024-01-27T11:54:30;101578.75;;;-2.33;100.00
15880;BME280;61999;51.514;14.614;2024-01-27T11:56:58;101578.72;;;-2.82;100.00
15880;BME280;61999;51.514;14.614;2024-01-27T11:59:27;101581.31;;;-2.68;100.00
15880;BME280;61999;51.514;14.614;2024-01-27T12:01:56;101594.22;;;-2.15;100.00
15880;BME280;61999;51.514;14.614;2024-01-27T12:04:24;101594.22;;;-2.15;100.00
15880;BME280;61999;51.514;14.614;2024-01-27T12:06:53;101595.97;;;-2.69;100.00
15880;BME280;61999;51.514;14.614;2024-01-27T12:09:21;101607.97;;;-2.89;100.00
15880;BME280;61999;51.514;14.614;2024-01-27T12:11:49;101607.16;;;-2.28;100.00
15880;BME280;61999;51.514;14.614;2024-01-27T12:14:17;101612.28;;;-1.93;100.00
15880;BME280;61999;51.514;14.614;2024-01-27T12:16:45;101617.47;;;-2.12;100.00
15880;BME280;61999;51.514;14.614;2024-01-27T12:19:15;101619.19;;;-2.11;100.00
15880;BME280;61999;51.514;14.614;2024-01-27T12:21:49;101618.34;;;-2.37;100.00
15880;BME280;61999;51.514;14.614;2024-01-27T12:24:17;101605.44;;;-2.42;100.00
15880;BME280;61999;51.514;14.614;2024-01-27T12:26:46;101624.25;;;-1.68;100.00
15880;BME280;61999;51.514;14.614;2024-01-27T12:29:14;101632.94;;;-1.92;100.00
15880;BME280;61999;51.514;14.614;2024-01-27T12:31:43;101614.88;;;-2.12;100.00
15880;BME280;61999;51.514;14.614;2024-01-27T12:34:11;101620.94;;;-2.16;100.00
15880;BME280;61999;51.514;14.614;2024-01-27T12:36:44;101619.97;;;-1.66;100.00
15880;BME280;61999;51.514;14.614;2024-01-27T12:39:12;101628.63;;;-1.88;100.00